createdAt,value
2022-11-29T00:01:32.256Z,100687.03
2022-11-29T00:03:59.265Z,100692.16
2022-11-29T00:06:33.653Z,100687.69
2022-11-29T00:09:06.354Z,100692.69
2022-11-29T00:11:54.247Z,100702.19
2022-11-29T00:14:21.933Z,100701.34
2022-11-29T00:16:53.790Z,100715.28
2022-11-29T00:19:20.916Z,100708.00
2022-11-29T00:21:47.986Z,100710.66
2022-11-29T00:24:14.617Z,100711.31
2022-11-29T00:26:41.373Z,100711.00
2022-11-29T00:29:10.236Z,100717.19
2022-11-29T00:31:40.530Z,100714.69
2022-11-29T00:34:10.982Z,100721.84
2022-11-29T00:36:45.105Z,100720.00
2022-11-29T00:39:26.440Z,100722.66
2022-11-29T00:41:53.026Z,100726.84
2022-11-29T00:44:20.671Z,100727.84
2022-11-29T00:46:56.910Z,100727.31
2022-11-29T00:49:23.516Z,100730.97
2022-11-29T00:51:50.210Z,100724.81
2022-11-29T00:54:16.962Z,100728.28
2022-11-29T00:56:43.825Z,100725.63
2022-11-29T00:59:10.509Z,100728.28
2022-11-29T01:01:37.233Z,100728.97
2022-11-29T01:04:04.087Z,100728.16
2022-11-29T01:06:30.732Z,100731.63
2022-11-29T01:08:57.316Z,100734.47
2022-11-29T01:11:31.630Z,100733.47
2022-11-29T01:14:01.181Z,100738.78
2022-11-29T01:16:30.323Z,100740.28
2022-11-29T01:18:57.147Z,100752.44
2022-11-29T01:21:26.556Z,100750.59
2022-11-29T01:23:53.541Z,100759.22
2022-11-29T01:26:23.458Z,100749.78
2022-11-29T01:28:51.585Z,100752.94
2022-11-29T01:31:27.330Z,100758.41
2022-11-29T01:34:01.157Z,100757.75
2022-11-29T01:36:28.002Z,100760.53
2022-11-29T01:38:54.695Z,100755.22
2022-11-29T01:41:25.106Z,100759.88
2022-11-29T01:44:15.538Z,100758.72
2022-11-29T01:46:46.704Z,100759.09
2022-11-29T01:49:19.746Z,100770.38
2022-11-29T01:51:54.205Z,100769.53
2022-11-29T01:54:21.236Z,100770.53
2022-11-29T01:56:49.547Z,100781.16
2022-11-29T01:59:21.082Z,100776.84
2022-11-29T02:01:47.961Z,100781.47
2022-11-29T02:04:15.605Z,100783.31
2022-11-29T02:06:52.871Z,100782.34
2022-11-29T02:09:21.227Z,100785.81
2022-11-29T02:12:17.059Z,100786.47
2022-11-29T02:15:05.133Z,100790.13
2022-11-29T02:18:07.299Z,100792.47
2022-11-29T02:21:10.964Z,100796.13
2022-11-29T02:24:00.671Z,100792.47
2022-11-29T02:26:44.197Z,100802.28
2022-11-29T02:29:26.153Z,100804.94
2022-11-29T02:31:55.775Z,100804.94
2022-11-29T02:34:43.952Z,100804.94
2022-11-29T02:37:22.969Z,100813.72
2022-11-29T02:40:40.833Z,100815.56
2022-11-29T02:43:45.924Z,100825.22
2022-11-29T02:46:24.574Z,100822.38
2022-11-29T02:49:15.579Z,100822.22
2022-11-29T02:52:02.051Z,100818.59
2022-11-29T02:54:41.756Z,100824.91
2022-11-29T02:57:25.049Z,100821.56
2022-11-29T03:00:11.644Z,100827.88
2022-11-29T03:03:04.844Z,100834.00
2022-11-29T03:05:51.134Z,100832.19
2022-11-29T03:08:30.158Z,100831.19
2022-11-29T03:11:05.030Z,100838.50
2022-11-29T03:13:46.849Z,100832.34
2022-11-29T03:16:23.394Z,100838.81
2022-11-29T03:19:00.571Z,100858.22
2022-11-29T03:21:43.109Z,100856.56
2022-11-29T03:24:29.900Z,100860.22
2022-11-29T03:27:42.564Z,100864.41
2022-11-29T03:30:20.002Z,100859.91
2022-11-29T03:33:01.958Z,100847.09
2022-11-29T03:35:42.873Z,100809.56
2022-11-29T03:38:25.868Z,100787.31
2022-11-29T03:41:01.220Z,100780.19
2022-11-29T03:43:39.609Z,100774.84
2022-11-29T03:46:12.081Z,100768.19
2022-11-29T03:48:54.468Z,100769.88
2022-11-29T03:51:26.381Z,100761.75
2022-11-29T03:54:06.063Z,100757.25
2022-11-29T03:56:35.299Z,100751.13
2022-11-29T03:59:32.703Z,100759.59
2022-11-29T04:02:37.013Z,100756.44
2022-11-29T04:05:35.974Z,100757.09
2022-11-29T04:08:14.808Z,100748.47
2022-11-29T04:11:18.753Z,100754.75
2022-11-29T04:14:25.579Z,100755.13
2022-11-29T04:17:15.262Z,100755.25
2022-11-29T04:19:54.009Z,100754.75
2022-11-29T04:22:51.694Z,100755.59
2022-11-29T04:25:27.338Z,100758.91
2022-11-29T04:27:59.172Z,100760.91
2022-11-29T04:30:26.158Z,100755.22
2022-11-29T04:33:16.499Z,100755.75
2022-11-29T04:35:51.187Z,100763.88
2022-11-29T04:38:23.812Z,100762.25
2022-11-29T04:41:06.547Z,100763.56
2022-11-29T04:43:54.033Z,100761.56
2022-11-29T04:46:41.055Z,100767.06
2022-11-29T04:49:52.024Z,100769.53
2022-11-29T04:52:48.164Z,100770.38
2022-11-29T04:56:00.933Z,100779.72
2022-11-29T04:58:36.427Z,100787.84
2022-11-29T05:01:19.059Z,100788.34
2022-11-29T05:04:06.946Z,100784.19
2022-11-29T05:06:49.497Z,100788.00
2022-11-29T05:09:42.731Z,100793.31
2022-11-29T05:12:20.084Z,100792.31
2022-11-29T05:15:27.601Z,100790.97
2022-11-29T05:18:28.607Z,100792.16
2022-11-29T05:21:05.930Z,100794.97
2022-11-29T05:23:47.752Z,100796.28
2022-11-29T05:26:30.818Z,100789.31
2022-11-29T05:29:08.327Z,100801.44
2022-11-29T05:31:52.296Z,100797.66
2022-11-29T05:34:40.472Z,100798.63
2022-11-29T05:37:45.814Z,100802.28
2022-11-29T05:40:31.253Z,100805.75
2022-11-29T05:43:16.644Z,100799.78
2022-11-29T05:45:49.897Z,100806.75
2022-11-29T05:48:31.107Z,100801.59
2022-11-29T05:51:39.244Z,100811.25
2022-11-29T05:54:14.648Z,100811.06
2022-11-29T05:56:46.858Z,100811.06
2022-11-29T05:59:41.537Z,100815.41
2022-11-29T06:02:23.814Z,100812.91
2022-11-29T06:05:25.940Z,100818.91
2022-11-29T06:08:10.891Z,100814.41
2022-11-29T06:10:42.140Z,100822.22
2022-11-29T06:13:08.731Z,100825.56
2022-11-29T06:16:01.418Z,100829.75
2022-11-29T06:18:48.302Z,100826.09
2022-11-29T06:21:22.397Z,100839.53
2022-11-29T06:23:58.877Z,100843.84
2022-11-29T06:26:43.051Z,100841.19
2022-11-29T06:29:42.442Z,100840.06
2022-11-29T06:32:40.787Z,100838.22
2022-11-29T06:35:10.549Z,100840.75
2022-11-29T06:37:46.760Z,100844.22
2022-11-29T06:40:15.976Z,100846.88
2022-11-29T06:42:42.901Z,100850.53
2022-11-29T06:45:14.346Z,100848.84
2022-11-29T06:47:45.061Z,100849.72
2022-11-29T06:50:27.190Z,100854.84
2022-11-29T06:53:03.049Z,100860.34
2022-11-29T06:55:43.177Z,100863.50
2022-11-29T06:58:18.423Z,100873.63
2022-11-29T07:00:47.976Z,100865.47
2022-11-29T07:03:48.431Z,100875.81
2022-11-29T07:06:25.878Z,100873.50
2022-11-29T07:08:59.822Z,100869.19
2022-11-29T07:11:26.785Z,100873.81
2022-11-29T07:13:53.933Z,100881.97
2022-11-29T07:16:31.963Z,100885.63
2022-11-29T07:19:06.940Z,100882.97
2022-11-29T07:22:05.509Z,100883.78
2022-11-29T07:24:48.161Z,100886.66
2022-11-29T07:27:44.344Z,100893.72
2022-11-29T07:30:16.194Z,100889.09
2022-11-29T07:32:51.378Z,100888.94
2022-11-29T07:35:23.208Z,100905.72
2022-11-29T07:38:07.802Z,100903.91
2022-11-29T07:41:22.381Z,100905.25
2022-11-29T07:43:55.011Z,100912.25
2022-11-29T07:46:29.071Z,100908.59
2022-11-29T07:48:55.822Z,100906.09
2022-11-29T07:51:22.425Z,100910.59
2022-11-29T07:53:49.172Z,100905.63
2022-11-29T07:56:16.342Z,100908.78
2022-11-29T07:58:45.472Z,100913.78
2022-11-29T08:01:12.740Z,100911.13
2022-11-29T08:03:41.687Z,100907.50
2022-11-29T08:06:08.488Z,100910.31
2022-11-29T08:08:43.533Z,100917.97
2022-11-29T08:11:11.837Z,100908.69
2022-11-29T08:13:38.425Z,100917.88
2022-11-29T08:16:05.355Z,100914.72
2022-11-29T08:18:36.344Z,100917.25
2022-11-29T08:21:07.422Z,100912.75
2022-11-29T08:23:34.015Z,100918.91
2022-11-29T08:26:04.503Z,100917.94
2022-11-29T08:28:31.093Z,100921.25
2022-11-29T08:31:06.570Z,100920.09
2022-11-29T08:33:40.480Z,100926.94
2022-11-29T08:36:09.966Z,100924.28
2022-11-29T08:38:36.599Z,100925.94
2022-11-29T08:41:07.868Z,100924.28
2022-11-29T08:43:34.664Z,100927.63
2022-11-29T08:46:01.576Z,100931.31
2022-11-29T08:48:28.367Z,100935.94
2022-11-29T08:50:56.017Z,100938.44
2022-11-29T08:53:44.834Z,100933.28
2022-11-29T08:59:05.581Z,100942.44
2022-11-29T09:01:34.523Z,100940.78
2022-11-29T09:04:05.110Z,100935.44
2022-11-29T09:06:40.329Z,100940.94
2022-11-29T09:09:10.320Z,100952.78
2022-11-29T09:11:37.024Z,100948.97
2022-11-29T09:14:06.665Z,100955.28
2022-11-29T09:16:49.157Z,100951.50
2022-11-29T09:19:23.600Z,100958.47
2022-11-29T09:21:50.209Z,100957.47
2022-11-29T09:24:17.009Z,100967.81
2022-11-29T09:26:46.907Z,100970.78
2022-11-29T09:29:22.623Z,100976.97
2022-11-29T09:31:49.313Z,100979.94
2022-11-29T09:34:24.671Z,100984.94
2022-11-29T09:36:51.361Z,100985.81
2022-11-29T09:39:18.076Z,100987.16
2022-11-29T09:42:06.744Z,100993.19
2022-11-29T09:44:39.178Z,100990.34
2022-11-29T09:47:36.728Z,100992.00
2022-11-29T09:50:46.427Z,100994.59
2022-11-29T09:53:34.831Z,101002.22
2022-11-29T09:56:28.490Z,101010.91
2022-11-29T09:59:01.533Z,101008.28
2022-11-29T10:02:00.277Z,101010.78
2022-11-29T10:04:31.294Z,101011.78
2022-11-29T10:07:18.619Z,101012.50
2022-11-29T10:09:50.609Z,101011.50
2022-11-29T10:12:20.351Z,101015.22
2022-11-29T10:15:01.587Z,101018.56
2022-11-29T10:17:34.583Z,101010.41
2022-11-29T10:20:23.248Z,101017.09
2022-11-29T10:22:57.548Z,101010.59
2022-11-29T10:25:26.698Z,101012.81
2022-11-29T10:27:53.775Z,101008.16
2022-11-29T10:30:25.480Z,101015.50
2022-11-29T10:32:58.354Z,101017.50
2022-11-29T10:35:25.079Z,101012.84
2022-11-29T10:38:29.309Z,101022.84
2022-11-29T10:40:47.805Z,101020.88
2022-11-29T10:43:14.499Z,101018.19
2022-11-29T10:45:51.039Z,101019.31
2022-11-29T10:48:22.575Z,101021.19
2022-11-29T10:51:02.912Z,101013.41
2022-11-29T10:58:02.617Z,101016.91
2022-11-29T11:00:32.782Z,101018.91
2022-11-29T11:03:47.905Z,101020.22
2022-11-29T11:07:01.460Z,101017.75
2022-11-29T11:09:33.803Z,101019.22
2022-11-29T11:12:08.568Z,101019.22
2022-11-29T11:14:40.423Z,101022.91
2022-11-29T11:17:31.176Z,101015.44
2022-11-29T11:20:22.057Z,101024.75
2022-11-29T11:23:24.118Z,101027.44
2022-11-29T11:26:30.972Z,101027.59
2022-11-29T11:33:27.142Z,101029.59
2022-11-29T11:36:22.035Z,101026.25
2022-11-29T11:39:10.036Z,101014.94
2022-11-29T11:41:57.454Z,101025.94
2022-11-29T11:44:48.481Z,101021.44
2022-11-29T11:47:21.971Z,101023.94
2022-11-29T11:50:09.201Z,101016.94
2022-11-29T11:52:42.794Z,101007.59
2022-11-29T11:55:30.491Z,101012.75
2022-11-29T11:58:11.985Z,101021.41
2022-11-29T12:03:39.609Z,101021.94
2022-11-29T12:06:11.246Z,101019.41
2022-11-29T12:08:40.447Z,101009.59
2022-11-29T12:11:10.557Z,101017.25
2022-11-29T12:13:41.812Z,101022.25
2022-11-29T12:16:16.163Z,101016.59
2022-11-29T12:18:47.722Z,101023.44
2022-11-29T12:21:17.612Z,101015.94
2022-11-29T12:24:10.242Z,101028.13
2022-11-29T12:29:28.961Z,101026.28
2022-11-29T12:32:18.094Z,101034.09
2022-11-29T12:34:56.116Z,101035.75
2022-11-29T12:37:44.511Z,101035.94
2022-11-29T12:40:21.377Z,101030.59
2022-11-29T12:43:06.708Z,101029.25
2022-11-29T12:45:53.622Z,101031.25
2022-11-29T12:48:26.472Z,101035.22
2022-11-29T12:51:27.406Z,101033.06
2022-11-29T12:54:16.988Z,101034.53
2022-11-29T12:56:53.688Z,101037.56
2022-11-29T12:59:38.518Z,101043.59
2022-11-29T13:02:21.151Z,101046.94
2022-11-29T13:05:00.325Z,101045.59
2022-11-29T13:07:33.270Z,101055.09
2022-11-29T13:10:02.927Z,101040.28
2022-11-29T13:12:57.095Z,101044.75
2022-11-29T13:15:32.802Z,101052.41
2022-11-29T13:18:13.446Z,101049.94
2022-11-29T13:20:49.905Z,101053.09
2022-11-29T13:24:10.901Z,101058.22
2022-11-29T13:26:58.279Z,101059.06
2022-11-29T13:29:28.522Z,101064.41
2022-11-29T13:31:55.215Z,101068.94
2022-11-29T13:34:46.158Z,101057.94
2022-11-29T13:37:12.913Z,101062.75
2022-11-29T13:39:58.311Z,101060.59
2022-11-29T13:42:45.355Z,101061.28
2022-11-29T13:45:22.853Z,101062.75
2022-11-29T13:47:58.672Z,101061.94
2022-11-29T13:50:40.006Z,101062.78
2022-11-29T13:53:48.560Z,101061.09
2022-11-29T13:56:49.467Z,101070.78
2022-11-29T13:59:31.715Z,101060.28
2022-11-29T14:02:00.980Z,101061.28
2022-11-29T14:04:34.994Z,101058.44
2022-11-29T14:07:04.500Z,101065.44
2022-11-29T14:09:53.245Z,101062.94
2022-11-29T14:12:36.054Z,101060.09
2022-11-29T14:15:18.044Z,101065.59
2022-11-29T14:17:57.206Z,101069.53
2022-11-29T14:20:23.766Z,101063.72
2022-11-29T14:23:05.471Z,101065.41
2022-11-29T14:28:18.604Z,101065.75
2022-11-29T14:30:54.913Z,101066.25
2022-11-29T14:33:34.113Z,101066.88
2022-11-29T14:36:18.866Z,101065.94
2022-11-29T14:39:04.440Z,101065.22
2022-11-29T14:41:55.783Z,101066.72
2022-11-29T14:44:26.077Z,101048.75
2022-11-29T14:47:07.357Z,101057.53
2022-11-29T14:49:42.210Z,101055.19
2022-11-29T14:52:14.960Z,101053.03
2022-11-29T14:55:16.675Z,101067.03
2022-11-29T14:58:02.163Z,101059.19
2022-11-29T15:00:29.602Z,101068.03
2022-11-29T15:03:06.265Z,101064.53
2022-11-29T15:05:34.880Z,101068.03
2022-11-29T15:08:34.878Z,101071.03
2022-11-29T15:11:26.098Z,101074.00
2022-11-29T15:14:02.078Z,101070.34
2022-11-29T15:16:47.327Z,101074.00
2022-11-29T15:19:43.520Z,101085.66
2022-11-29T15:22:20.195Z,101083.16
2022-11-29T15:25:17.574Z,101078.81
2022-11-29T15:27:55.129Z,101086.13
2022-11-29T15:30:36.972Z,101087.31
2022-11-29T15:33:07.139Z,101089.13
2022-11-29T15:35:35.165Z,101087.47
2022-11-29T15:38:02.380Z,101100.78
2022-11-29T15:40:36.403Z,101096.44
2022-11-29T15:43:41.446Z,101094.63
2022-11-29T15:46:18.895Z,101093.94
2022-11-29T15:48:45.584Z,101096.44
2022-11-29T15:51:30.715Z,101099.97
2022-11-29T15:54:23.318Z,101097.28
2022-11-29T15:56:54.478Z,101100.25
2022-11-29T15:59:27.651Z,101102.91
2022-11-29T16:01:57.390Z,101101.91
2022-11-29T16:04:24.479Z,101107.44
2022-11-29T16:06:51.931Z,101104.91
2022-11-29T16:09:30.424Z,101111.09
2022-11-29T16:11:57.489Z,101111.41
2022-11-29T16:14:25.402Z,101103.25
2022-11-29T16:16:57.790Z,101112.91
2022-11-29T16:19:37.631Z,101112.41
2022-11-29T16:22:10.410Z,101116.06
2022-11-29T16:25:07.861Z,101118.56
2022-11-29T16:27:36.350Z,101125.72
2022-11-29T16:30:08.409Z,101122.88
2022-11-29T16:33:03.403Z,101131.72
2022-11-29T16:35:33.111Z,101122.88
2022-11-29T16:38:03.747Z,101126.53
2022-11-29T16:40:35.373Z,101129.22
2022-11-29T16:43:08.751Z,101132.72
2022-11-29T16:45:41.785Z,101130.88
2022-11-29T16:48:30.564Z,101136.19
2022-11-29T16:51:44.064Z,101142.53
2022-11-29T16:54:21.211Z,101139.53
2022-11-29T16:56:48.731Z,101137.72
2022-11-29T16:59:25.581Z,101136.06
2022-11-29T17:01:56.774Z,101144.88
2022-11-29T17:04:25.143Z,101143.72
2022-11-29T17:06:56.155Z,101141.88
2022-11-29T17:09:28.887Z,101143.59
2022-11-29T17:11:56.576Z,101143.72
2022-11-29T17:14:23.266Z,101145.25
2022-11-29T17:16:50.522Z,101148.75
2022-11-29T17:19:18.192Z,101153.25
2022-11-29T17:21:50.263Z,101141.41
2022-11-29T17:24:21.793Z,101149.41
2022-11-29T17:26:48.420Z,101154.44
2022-11-29T17:29:20.730Z,101157.41
2022-11-29T17:32:15.962Z,101151.63
2022-11-29T17:34:51.857Z,101152.63
2022-11-29T17:37:20.634Z,101154.09
2022-11-29T17:39:49.174Z,101157.75
2022-11-29T17:42:20.815Z,101166.75
2022-11-29T17:44:47.507Z,101170.41
2022-11-29T17:47:14.210Z,101167.59
2022-11-29T17:49:40.908Z,101164.94
2022-11-29T17:52:08.163Z,101167.75
2022-11-29T17:54:36.032Z,101166.94
2022-11-29T17:57:04.470Z,101170.28
2022-11-29T17:59:31.103Z,101171.09
2022-11-29T18:01:57.763Z,101169.41
2022-11-29T18:04:24.451Z,101173.25
2022-11-29T18:06:52.469Z,101167.06
2022-11-29T18:09:19.805Z,101175.25
2022-11-29T18:11:49.376Z,101169.06
2022-11-29T18:14:28.312Z,101179.91
2022-11-29T18:16:55.243Z,101184.22
2022-11-29T18:19:23.006Z,101178.06
2022-11-29T18:21:50.341Z,101182.56
2022-11-29T18:24:17.753Z,101176.25
2022-11-29T18:26:45.507Z,101183.38
2022-11-29T18:29:12.500Z,101191.38
2022-11-29T18:31:41.633Z,101191.38
2022-11-29T18:34:10.152Z,101196.69
2022-11-29T18:36:45.592Z,101197.69
2022-11-29T18:39:18.061Z,101190.28
2022-11-29T18:41:48.404Z,101196.38
2022-11-29T18:44:17.448Z,101192.91
2022-11-29T18:46:45.295Z,101189.38
2022-11-29T18:49:17.575Z,101197.38
2022-11-29T18:51:46.172Z,101200.22
2022-11-29T18:54:14.353Z,101203.72
2022-11-29T18:56:42.648Z,101207.22
2022-11-29T18:59:16.710Z,101200.38
2022-11-29T19:01:45.355Z,101205.56
2022-11-29T19:04:16.717Z,101207.22
2022-11-29T19:06:44.089Z,101202.88
2022-11-29T19:09:20.781Z,101202.88
2022-11-29T19:11:49.392Z,101204.69
2022-11-29T19:14:16.061Z,101205.69
2022-11-29T19:16:44.922Z,101206.81
2022-11-29T19:19:13.043Z,101197.16
2022-11-29T19:21:42.288Z,101204.03
2022-11-29T19:24:15.719Z,101201.69
2022-11-29T19:26:48.501Z,101207.53
2022-11-29T19:29:15.745Z,101203.16
2022-11-29T19:31:44.811Z,101207.00
2022-11-29T19:34:11.695Z,101211.34
2022-11-29T19:36:44.979Z,101214.31
2022-11-29T19:39:14.346Z,101209.13
2022-11-29T19:41:45.531Z,101204.47
2022-11-29T19:44:12.538Z,101212.78
2022-11-29T19:46:45.745Z,101206.63
2022-11-29T19:49:14.007Z,101204.66
2022-11-29T19:51:41.100Z,101211.78
2022-11-29T19:54:12.405Z,101210.81
2022-11-29T19:56:39.356Z,101215.31
2022-11-29T19:59:07.517Z,101211.47
2022-11-29T20:01:40.766Z,101207.31
2022-11-29T20:04:12.034Z,101221.63
2022-11-29T20:06:39.799Z,101221.63
2022-11-29T20:09:07.065Z,101214.63
2022-11-29T20:11:33.749Z,101218.97
2022-11-29T20:14:01.516Z,101225.28
2022-11-29T20:16:29.378Z,101216.31
2022-11-29T20:18:56.866Z,101218.97
2022-11-29T20:21:33.730Z,101216.50
2022-11-29T20:24:07.769Z,101224.81
2022-11-29T20:26:37.500Z,101224.44
2022-11-29T20:29:05.536Z,101225.44
2022-11-29T20:31:33.651Z,101226.28
2022-11-29T20:34:00.522Z,101232.59
2022-11-29T20:36:36.360Z,101228.78
2022-11-29T20:39:33.971Z,101229.94
2022-11-29T20:42:18.784Z,101228.78
2022-11-29T20:44:57.256Z,101225.75
2022-11-29T20:47:28.570Z,101223.63
2022-11-29T20:49:55.568Z,101233.09
2022-11-29T20:52:28.245Z,101225.59
2022-11-29T20:54:55.147Z,101230.75
2022-11-29T20:57:22.271Z,101231.63
2022-11-29T20:59:49.812Z,101229.09
2022-11-29T21:02:16.492Z,101230.75
2022-11-29T21:04:43.313Z,101233.59
2022-11-29T21:07:10.071Z,101240.72
2022-11-29T21:09:36.673Z,101244.25
2022-11-29T21:12:05.997Z,101243.78
2022-11-29T21:14:32.972Z,101239.28
2022-11-29T21:17:00.245Z,101243.94
2022-11-29T21:19:27.295Z,101249.41
2022-11-29T21:22:05.900Z,101245.94
2022-11-29T21:24:51.327Z,101242.06
2022-11-29T21:27:31.748Z,101239.97
2022-11-29T21:30:03.395Z,101246.59
2022-11-29T21:32:30.279Z,101234.94
2022-11-29T21:34:56.921Z,101229.94
2022-11-29T21:37:29.297Z,101242.28
2022-11-29T21:39:57.554Z,101244.63
2022-11-29T21:42:24.202Z,101244.75
2022-11-29T21:44:50.882Z,101244.75
2022-11-29T21:47:17.520Z,101244.94
2022-11-29T21:49:44.172Z,101247.91
2022-11-29T21:52:10.862Z,101242.59
2022-11-29T21:54:37.524Z,101245.38
2022-11-29T21:57:04.334Z,101236.03
2022-11-29T21:59:31.220Z,101239.88
2022-11-29T22:01:57.948Z,101245.19
2022-11-29T22:04:25.235Z,101245.50
2022-11-29T22:06:51.830Z,101245.19
2022-11-29T22:09:18.705Z,101260.31
2022-11-29T22:11:45.813Z,101249.22
2022-11-29T22:14:18.077Z,101259.50
2022-11-29T22:16:54.265Z,101258.50
2022-11-29T22:19:28.960Z,101261.47
2022-11-29T22:21:57.751Z,101265.66
2022-11-29T22:24:26.828Z,101265.28
2022-11-29T22:26:54.313Z,101267.13
2022-11-29T22:29:21.650Z,101274.13
2022-11-29T22:31:51.145Z,101267.81
2022-11-29T22:34:18.465Z,101269.94
2022-11-29T22:36:48.726Z,101581.53
2022-11-29T22:39:15.586Z,101658.38
2022-11-29T22:41:42.695Z,101685.44
2022-11-29T22:44:09.613Z,101693.28
2022-11-29T22:46:39.369Z,101696.38
2022-11-29T22:49:06.017Z,101701.16
2022-11-29T22:51:34.941Z,101701.97
2022-11-29T22:54:03.666Z,101708.84
2022-11-29T22:56:32.739Z,101714.72
2022-11-29T22:58:59.554Z,101704.22
2022-11-29T23:01:30.804Z,101711.38
2022-11-29T23:03:59.715Z,101710.38
2022-11-29T23:06:28.369Z,101713.34
2022-11-29T23:08:59.020Z,101714.31
2022-11-29T23:11:29.807Z,101712.59
2022-11-29T23:13:56.652Z,101712.88
2022-11-29T23:16:25.592Z,101718.38
2022-11-29T23:18:53.538Z,101717.69
2022-11-29T23:21:28.384Z,101723.81
2022-11-29T23:23:56.828Z,101719.34
2022-11-29T23:26:26.391Z,101722.13
2022-11-29T23:28:54.136Z,101717.50
2022-11-29T23:31:21.508Z,101716.41
2022-11-29T23:33:48.525Z,101719.94
2022-11-29T23:36:15.701Z,101724.38
2022-11-29T23:38:42.791Z,101720.06
2022-11-29T23:41:09.839Z,101709.44
2022-11-29T23:43:37.869Z,101709.28
2022-11-29T23:46:15.029Z,101711.81
2022-11-29T23:48:42.142Z,101711.81
2022-11-29T23:51:09.057Z,101718.69
2022-11-29T23:53:35.680Z,101718.09
2022-11-29T23:56:04.415Z,101714.19
2022-11-29T23:58:32.115Z,101711.66
